Time;durP1;ratioP1;P1;durP2;ratioP2;P2;SDS_P1;SDS_P2;PMS_P1;PMS_P2;Temp;Humidity;BMP_temperature;BMP_pressure;BME280_temperature;BME280_humidity;BME280_pressure;Samples;Min_cycle;Max_cycle;Signal;HPM_P1;HPM_P2
2023/04/27 00:02:05;;;;;;;2.63;1.63;;;;;;;;;;4978079;28;20623;-48
2023/04/27 00:04:31;;;;;;;3.33;1.60;;;;;;;;;;4995084;28;20197;-48
2023/04/27 00:06:57;;;;;;;2.67;1.60;;;;;;;;;;4994354;28;20628;-48
2023/04/27 00:09:23;;;;;;;1.88;1.70;;;;;;;;;;4978295;28;20181;-48
2023/04/27 00:11:49;;;;;;;2.10;1.77;;;;;;;;;;4995038;28;20438;-48
2023/04/27 00:14:15;;;;;;;1.30;1.20;;;;;;;;;;4995054;28;20556;-48
2023/04/27 00:16:41;;;;;;;1.38;1.27;;;;;;;;;;4993927;28;20251;-48
2023/04/27 00:19:07;;;;;;;1.83;1.45;;;;;;;;;;4994427;28;20173;-48
2023/04/27 00:21:33;;;;;;;2.10;1.52;;;;;;;;;;4995018;28;20177;-48
2023/04/27 00:23:59;;;;;;;2.00;1.50;;;;;;;;;;4994860;28;20217;-48
2023/04/27 00:26:25;;;;;;;1.27;1.17;;;;;;;;;;4994979;28;20232;-48
2023/04/27 00:28:51;;;;;;;1.90;1.40;;;;;;;;;;4994575;28;20185;-48
2023/04/27 00:31:17;;;;;;;2.53;1.60;;;;;;;;;;4994036;28;20184;-49
2023/04/27 00:33:43;;;;;;;1.88;1.40;;;;;;;;;;4994308;28;20189;-48
2023/04/27 00:36:09;;;;;;;2.85;1.70;;;;;;;;;;4995090;28;20192;-48
2023/04/27 00:38:35;;;;;;;1.63;1.50;;;;;;;;;;4994345;28;20188;-48
2023/04/27 00:41:02;;;;;;;1.70;1.60;;;;;;;;;;4994270;28;20193;-48
2023/04/27 00:43:28;;;;;;;2.55;1.50;;;;;;;;;;4994550;28;20243;-48
2023/04/27 00:45:54;;;;;;;1.50;1.40;;;;;;;;;;4994373;28;20585;-48
2023/04/27 00:48:20;;;;;;;2.28;1.65;;;;;;;;;;4994169;28;20276;-48
2023/04/27 00:50:46;;;;;;;1.48;1.27;;;;;;;;;;4997243;28;20463;-48
2023/04/27 00:53:12;;;;;;;1.60;1.50;;;;;;;;;;4998408;28;20460;-48
2023/04/27 00:55:38;;;;;;;1.60;1.40;;;;;;;;;;4998456;28;20219;-49
2023/04/27 00:58:04;;;;;;;2.08;1.70;;;;;;;;;;4997309;28;20177;-48
2023/04/27 01:00:30;;;;;;;1.50;1.40;;;;;;;;;;4998501;28;20414;-48
2023/04/27 01:02:56;;;;;;;1.45;1.35;;;;;;;;;;4998585;28;20438;-47
2023/04/27 01:05:23;;;;;;;1.63;1.45;;;;;;;;;;4981719;28;20191;-49
2023/04/27 01:07:50;;;;;;;1.33;1.20;;;;;;;;;;4996792;28;20181;-48
2023/04/27 01:10:16;;;;;;;1.55;1.45;;;;;;;;;;4998782;28;20161;-48
2023/04/27 01:12:41;;;;;;;2.10;1.50;;;;;;;;;;4998219;28;20248;-48
2023/04/27 01:15:08;;;;;;;2.45;1.55;;;;;;;;;;4997800;28;20220;-48
2023/04/27 01:17:34;;;;;;;2.67;1.40;;;;;;;;;;4997569;28;20240;-48
2023/04/27 01:20:01;;;;;;;1.67;1.40;;;;;;;;;;4998142;28;20189;-48
2023/04/27 01:22:27;;;;;;;3.25;1.50;;;;;;;;;;4998386;28;20178;-48
2023/04/27 01:24:53;;;;;;;1.90;1.42;;;;;;;;;;4997570;28;20228;-48
2023/04/27 01:27:18;;;;;;;3.72;1.55;;;;;;;;;;4997302;28;20169;-48
2023/04/27 01:29:45;;;;;;;2.83;1.50;;;;;;;;;;4997375;28;20459;-49
2023/04/27 01:32:11;;;;;;;1.63;1.38;;;;;;;;;;4997627;28;20169;-48
2023/04/27 01:34:37;;;;;;;1.23;1.08;;;;;;;;;;4998034;28;20208;-48
2023/04/27 01:37:03;;;;;;;1.85;1.63;;;;;;;;;;4997087;28;20181;-48
2023/04/27 01:39:29;;;;;;;2.08;1.58;;;;;;;;;;4997271;28;20212;-48
2023/04/27 01:41:55;;;;;;;1.73;1.20;;;;;;;;;;4996976;28;20250;-48
2023/04/27 01:44:22;;;;;;;1.50;1.40;;;;;;;;;;4997704;28;20600;-48
2023/04/27 01:46:48;;;;;;;1.30;1.23;;;;;;;;;;4997295;28;20203;-48
2023/04/27 01:49:14;;;;;;;1.90;1.58;;;;;;;;;;4997442;28;20464;-48
2023/04/27 01:51:40;;;;;;;1.30;1.20;;;;;;;;;;4997922;28;20603;-48
2023/04/27 01:54:06;;;;;;;1.30;1.20;;;;;;;;;;4997288;28;20279;-48
2023/04/27 01:56:32;;;;;;;1.63;1.52;;;;;;;;;;4997385;28;20197;-48
2023/04/27 01:58:58;;;;;;;1.63;1.23;;;;;;;;;;4996365;28;20189;-48
2023/04/27 02:01:24;;;;;;;1.48;1.35;;;;;;;;;;4997416;28;20885;-48
2023/04/27 02:03:50;;;;;;;1.42;1.17;;;;;;;;;;4997220;28;20219;-48
2023/04/27 02:06:16;;;;;;;1.15;1.05;;;;;;;;;;4997490;28;20176;-48
2023/04/27 02:08:42;;;;;;;1.60;1.42;;;;;;;;;;4996498;28;20260;-48
2023/04/27 02:11:08;;;;;;;1.30;1.20;;;;;;;;;;4997259;28;20252;-49
2023/04/27 02:13:34;;;;;;;1.45;1.30;;;;;;;;;;4997344;28;20499;-48
2023/04/27 02:16:03;;;;;;;1.67;1.33;;;;;;;;;;4996504;28;20244;-48
2023/04/27 02:18:28;;;;;;;1.25;1.15;;;;;;;;;;4996830;28;20191;-48
2023/04/27 02:20:54;;;;;;;1.83;1.40;;;;;;;;;;4997074;28;20185;-48
2023/04/27 02:23:21;;;;;;;1.42;1.30;;;;;;;;;;4996503;28;20231;-49
2023/04/27 02:25:47;;;;;;;2.42;1.42;;;;;;;;;;4997277;28;20174;-48
2023/04/27 02:28:13;;;;;;;1.40;1.30;;;;;;;;;;4996563;28;20177;-48
2023/04/27 02:30:39;;;;;;;1.30;1.20;;;;;;;;;;4997090;28;20185;-48
2023/04/27 02:33:05;;;;;;;1.40;1.30;;;;;;;;;;4995943;28;20181;-49
2023/04/27 02:35:34;;;;;;;1.45;1.25;;;;;;;;;;4996671;28;20220;-48
2023/04/27 02:38:00;;;;;;;2.30;1.20;;;;;;;;;;4996110;28;20284;-48
2023/04/27 02:40:26;;;;;;;1.20;1.10;;;;;;;;;;4996779;28;20176;-48
2023/04/27 02:42:52;;;;;;;1.05;1.00;;;;;;;;;;4994364;28;20222;-48
2023/04/27 02:45:18;;;;;;;1.73;1.48;;;;;;;;;;4995181;28;20213;-48
2023/04/27 02:47:44;;;;;;;1.63;1.40;;;;;;;;;;4995367;28;20320;-48
2023/04/27 02:50:10;;;;;;;1.83;1.27;;;;;;;;;;4996614;28;20176;-48
2023/04/27 02:52:36;;;;;;;2.35;1.38;;;;;;;;;;4995836;28;20178;-48
2023/04/27 02:55:02;;;;;;;1.75;1.30;;;;;;;;;;4996380;28;20216;-49
2023/04/27 02:57:28;;;;;;;1.30;1.20;;;;;;;;;;4995149;28;20181;-48
2023/04/27 02:59:54;;;;;;;1.30;1.20;;;;;;;;;;4995908;28;20483;-48
2023/04/27 03:02:19;;;;;;;1.88;1.10;;;;;;;;;;4996427;28;20444;-48
2023/04/27 03:04:46;;;;;;;1.23;1.10;;;;;;;;;;4995367;28;20249;-48
2023/04/27 03:07:12;;;;;;;1.30;1.20;;;;;;;;;;4995302;28;20281;-48
2023/04/27 03:09:37;;;;;;;1.88;1.48;;;;;;;;;;4995847;28;20669;-48
2023/04/27 03:12:04;;;;;;;2.05;1.20;;;;;;;;;;4995802;28;20184;-48
2023/04/27 03:14:30;;;;;;;2.45;1.58;;;;;;;;;;4996442;28;20189;-48
2023/04/27 03:16:56;;;;;;;1.30;1.20;;;;;;;;;;4995181;28;20201;-49
2023/04/27 03:19:22;;;;;;;1.73;1.10;;;;;;;;;;4995278;28;20200;-48
2023/04/27 03:21:48;;;;;;;1.27;1.10;;;;;;;;;;4995234;28;20370;-48
2023/04/27 03:24:14;;;;;;;2.20;1.20;;;;;;;;;;4995973;28;20620;-48
2023/04/27 03:26:40;;;;;;;2.75;1.13;;;;;;;;;;4994942;28;20217;-48
2023/04/27 03:29:06;;;;;;;1.23;1.13;;;;;;;;;;4995601;28;20259;-49
2023/04/27 03:31:32;;;;;;;1.55;1.33;;;;;;;;;;4995227;28;20189;-48
2023/04/27 03:33:58;;;;;;;28.35;6.32;;;;;;;;;;4995496;28;20201;-48
2023/04/27 03:36:23;;;;;;;62.67;12.32;;;;;;;;;;4995817;28;20193;-48
2023/04/27 03:38:49;;;;;;;45.95;9.90;;;;;;;;;;4994184;28;20270;-48
2023/04/27 03:41:15;;;;;;;35.38;7.57;;;;;;;;;;4995429;28;20247;-49
2023/04/27 03:43:41;;;;;;;26.63;6.50;;;;;;;;;;4994623;28;20639;-48
2023/04/27 03:46:08;;;;;;;21.38;5.40;;;;;;;;;;4995512;28;20185;-48
2023/04/27 03:48:33;;;;;;;49.83;11.82;;;;;;;;;;4994657;28;20176;-48
2023/04/27 03:51:00;;;;;;;93.75;21.45;;;;;;;;;;4995146;28;20189;-48
2023/04/27 03:53:26;;;;;;;80.72;17.95;;;;;;;;;;4994944;28;20244;-48
2023/04/27 03:55:52;;;;;;;66.43;17.45;;;;;;;;;;4995132;28;20624;-48
2023/04/27 03:58:18;;;;;;;52.28;14.55;;;;;;;;;;4994328;28;20192;-49
2023/04/27 04:00:44;;;;;;;51.97;13.40;;;;;;;;;;4994818;28;20185;-49
2023/04/27 04:03:10;;;;;;;48.38;12.07;;;;;;;;;;4995352;28;20189;-48
2023/04/27 04:05:36;;;;;;;51.75;12.35;;;;;;;;;;4995168;28;20235;-48
2023/04/27 04:08:02;;;;;;;43.05;12.57;;;;;;;;;;4995638;28;20193;-48
2023/04/27 04:10:28;;;;;;;51.13;12.70;;;;;;;;;;4995169;28;20173;-48
2023/04/27 04:12:54;;;;;;;48.50;12.30;;;;;;;;;;4993788;28;20256;-48
2023/04/27 04:15:20;;;;;;;41.70;12.20;;;;;;;;;;4994742;28;20185;-48
2023/04/27 04:17:48;;;;;;;42.90;11.80;;;;;;;;;;4994169;28;20235;-48
2023/04/27 04:20:14;;;;;;;38.25;11.73;;;;;;;;;;4995235;28;20520;-48
2023/04/27 04:22:40;;;;;;;41.90;10.70;;;;;;;;;;4994399;28;20316;-48
2023/04/27 04:25:06;;;;;;;42.67;11.88;;;;;;;;;;4994222;28;20299;-48
2023/04/27 04:27:32;;;;;;;44.03;11.60;;;;;;;;;;4994110;28;20169;-48
2023/04/27 04:29:59;;;;;;;43.67;11.00;;;;;;;;;;4993726;28;20204;-48
2023/04/27 04:32:30;;;;;;;35.33;10.55;;;;;;;;;;4994383;28;20264;-48
2023/04/27 04:34:55;;;;;;;43.08;11.57;;;;;;;;;;4994808;28;20185;-48
2023/04/27 04:37:22;;;;;;;37.22;10.77;;;;;;;;;;4994141;28;20185;-48
2023/04/27 04:39:48;;;;;;;35.95;10.82;;;;;;;;;;4994360;28;20962;-48
2023/04/27 04:42:13;;;;;;;33.00;10.27;;;;;;;;;;4995208;28;20185;-48
2023/04/27 04:44:39;;;;;;;32.75;9.57;;;;;;;;;;4994830;28;20220;-48
2023/04/27 04:47:05;;;;;;;30.83;9.73;;;;;;;;;;4993106;28;20191;-48
2023/04/27 04:49:32;;;;;;;32.63;9.27;;;;;;;;;;4994485;28;20589;-48
2023/04/27 04:51:58;;;;;;;33.05;8.75;;;;;;;;;;4994445;28;20181;-48
2023/04/27 04:54:23;;;;;;;29.73;9.60;;;;;;;;;;4993944;28;20192;-48
2023/04/27 04:56:49;;;;;;;27.38;8.15;;;;;;;;;;4993973;28;20581;-48
2023/04/27 04:59:15;;;;;;;27.50;8.80;;;;;;;;;;4994302;28;20272;-48
2023/04/27 05:01:41;;;;;;;28.80;9.55;;;;;;;;;;4994759;28;20181;-48
2023/04/27 05:04:07;;;;;;;28.00;8.77;;;;;;;;;;4993408;28;20296;-48
2023/04/27 05:06:33;;;;;;;23.83;8.50;;;;;;;;;;4994220;28;20169;-48
2023/04/27 05:08:59;;;;;;;23.58;7.85;;;;;;;;;;4993217;28;20639;-48
2023/04/27 05:11:25;;;;;;;26.70;8.13;;;;;;;;;;4994332;28;20182;-48
2023/04/27 05:13:51;;;;;;;31.23;8.63;;;;;;;;;;4992340;28;20181;-49
2023/04/27 05:16:17;;;;;;;26.15;7.63;;;;;;;;;;4994035;28;20189;-49
2023/04/27 05:18:43;;;;;;;23.98;8.10;;;;;;;;;;4992629;28;20200;-49
2023/04/27 05:21:16;;;;;;;21.58;7.43;;;;;;;;;;4993268;28;20185;-49
2023/04/27 05:23:42;;;;;;;20.98;7.60;;;;;;;;;;4990174;28;20205;-48
2023/04/27 05:26:12;;;;;;;19.40;7.45;;;;;;;;;;4993799;28;20189;-48
2023/04/27 05:28:38;;;;;;;24.13;8.40;;;;;;;;;;4993265;28;20483;-49
2023/04/27 05:31:04;;;;;;;25.02;7.88;;;;;;;;;;4992413;28;20256;-48
2023/04/27 05:33:29;;;;;;;21.15;7.07;;;;;;;;;;4994243;28;20223;-48
2023/04/27 05:35:55;;;;;;;22.70;7.38;;;;;;;;;;4994234;28;20596;-48
2023/04/27 05:38:21;;;;;;;25.42;7.20;;;;;;;;;;4996680;28;20224;-48
2023/04/27 05:40:53;;;;;;;16.70;6.97;;;;;;;;;;4997299;28;20568;-48
2023/04/27 05:43:19;;;;;;;22.80;7.10;;;;;;;;;;4997175;28;20235;-48
2023/04/27 05:45:45;;;;;;;18.73;7.07;;;;;;;;;;4995388;28;20192;-48
2023/04/27 05:48:11;;;;;;;15.80;6.57;;;;;;;;;;4997221;28;20173;-49
2023/04/27 05:50:37;;;;;;;18.40;7.18;;;;;;;;;;4997404;28;20557;-48
2023/04/27 05:53:04;;;;;;;17.50;6.38;;;;;;;;;;4996359;28;20177;-48
2023/04/27 05:55:30;;;;;;;14.05;6.05;;;;;;;;;;4996488;28;20478;-48
2023/04/27 05:57:56;;;;;;;21.50;7.28;;;;;;;;;;4996229;28;20185;-48
2023/04/27 06:00:22;;;;;;;14.20;5.88;;;;;;;;;;4996685;28;20200;-48
2023/04/27 06:02:48;;;;;;;13.48;5.68;;;;;;;;;;4996454;28;20177;-48
2023/04/27 06:05:14;;;;;;;17.50;5.97;;;;;;;;;;4992839;28;20844;-49
2023/04/27 06:07:42;;;;;;;15.48;5.63;;;;;;;;;;4978502;28;20182;-48
2023/04/27 06:10:08;;;;;;;12.27;5.60;;;;;;;;;;4995948;28;20178;-48
2023/04/27 06:12:34;;;;;;;16.63;6.28;;;;;;;;;;4996899;28;20181;-48
2023/04/27 06:15:06;;;;;;;15.48;5.85;;;;;;;;;;4995729;28;20193;-48
2023/04/27 06:17:32;;;;;;;12.10;5.50;;;;;;;;;;4995618;28;20331;-48
2023/04/27 06:19:58;;;;;;;17.73;6.10;;;;;;;;;;4995810;28;20264;-49
2023/04/27 06:22:25;;;;;;;13.30;5.30;;;;;;;;;;4996562;28;20495;-48
2023/04/27 06:24:50;;;;;;;16.38;5.82;;;;;;;;;;4996167;28;20240;-48
2023/04/27 06:27:16;;;;;;;15.18;5.75;;;;;;;;;;4995098;28;20209;-48
2023/04/27 06:29:42;;;;;;;11.93;5.45;;;;;;;;;;4995421;28;20189;-49
2023/04/27 06:32:08;;;;;;;11.88;5.15;;;;;;;;;;4996693;28;20181;-48
2023/04/27 06:34:34;;;;;;;12.77;5.05;;;;;;;;;;4995875;28;20197;-48
2023/04/27 06:37:01;;;;;;;10.88;4.93;;;;;;;;;;4995056;28;20263;-48
2023/04/27 06:39:27;;;;;;;10.18;4.75;;;;;;;;;;4995529;28;20188;-48
2023/04/27 06:41:53;;;;;;;10.52;4.82;;;;;;;;;;4996610;28;20208;-48
2023/04/27 06:44:19;;;;;;;12.57;5.28;;;;;;;;;;4992301;28;20223;-48
2023/04/27 06:46:45;;;;;;;11.77;4.70;;;;;;;;;;4993969;28;20272;-48
2023/04/27 06:49:11;;;;;;;10.70;4.30;;;;;;;;;;4995958;28;20569;-48
2023/04/27 06:51:36;;;;;;;10.90;5.25;;;;;;;;;;4994467;28;20177;-48
2023/04/27 06:54:03;;;;;;;9.80;4.20;;;;;;;;;;4995778;28;20240;-48
2023/04/27 06:56:29;;;;;;;15.13;5.20;;;;;;;;;;4994548;28;20215;-48
2023/04/27 06:58:55;;;;;;;11.25;4.25;;;;;;;;;;4995234;28;20206;-48
2023/04/27 07:01:20;;;;;;;10.40;4.75;;;;;;;;;;4996187;28;20496;-48
2023/04/27 07:03:46;;;;;;;10.35;4.40;;;;;;;;;;4996076;28;20209;-48
2023/04/27 07:06:12;;;;;;;9.35;4.00;;;;;;;;;;4996542;28;20185;-48
2023/04/27 07:08:38;;;;;;;11.95;4.35;;;;;;;;;;4993020;28;20278;-48
2023/04/27 07:11:04;;;;;;;8.73;4.30;;;;;;;;;;4995805;28;20239;-48
2023/04/27 07:13:30;;;;;;;10.02;4.28;;;;;;;;;;4994988;28;20189;-48
2023/04/27 07:15:56;;;;;;;9.43;4.40;;;;;;;;;;4995306;28;20185;-48
2023/04/27 07:18:23;;;;;;;8.77;4.00;;;;;;;;;;4993110;28;20189;-48
2023/04/27 07:20:48;;;;;;;7.07;3.80;;;;;;;;;;4995744;28;20181;-48
2023/04/27 07:23:15;;;;;;;10.45;4.15;;;;;;;;;;4995939;28;20453;-48
2023/04/27 07:25:42;;;;;;;7.30;4.13;;;;;;;;;;4995585;28;20197;-48
2023/04/27 07:28:08;;;;;;;10.85;3.50;;;;;;;;;;4992383;28;20174;-48
2023/04/27 07:30:35;;;;;;;8.57;3.58;;;;;;;;;;4994881;28;20300;-48
2023/04/27 07:33:01;;;;;;;8.93;3.85;;;;;;;;;;4994880;28;20188;-48
2023/04/27 07:35:27;;;;;;;10.88;4.15;;;;;;;;;;4994788;28;20201;-48
2023/04/27 07:37:55;;;;;;;8.50;3.42;;;;;;;;;;4993837;28;20177;-48
2023/04/27 07:40:23;;;;;;;10.55;4.28;;;;;;;;;;4993741;28;20836;-48
2023/04/27 07:42:49;;;;;;;9.82;4.50;;;;;;;;;;4994430;28;20560;-48
2023/04/27 07:45:16;;;;;;;5.88;3.88;;;;;;;;;;4994743;28;20271;-48
2023/04/27 07:47:43;;;;;;;6.10;3.33;;;;;;;;;;4994907;28;20188;-48
2023/04/27 07:50:09;;;;;;;7.00;3.70;;;;;;;;;;4995149;28;20178;-48
2023/04/27 07:52:36;;;;;;;8.50;3.33;;;;;;;;;;4994248;28;20568;-48
2023/04/27 07:55:02;;;;;;;10.00;3.75;;;;;;;;;;4995589;28;20235;-48
2023/04/27 07:57:28;;;;;;;6.50;3.60;;;;;;;;;;4995057;28;20183;-48
2023/04/27 07:59:54;;;;;;;6.82;3.15;;;;;;;;;;4995245;28;20584;-49
2023/04/27 08:02:20;;;;;;;6.88;3.45;;;;;;;;;;4995111;28;20196;-48
2023/04/27 08:04:47;;;;;;;7.00;3.33;;;;;;;;;;4995362;28;20217;-48
2023/04/27 08:07:13;;;;;;;5.57;3.10;;;;;;;;;;4993762;28;20187;-48
2023/04/27 08:09:38;;;;;;;6.05;3.08;;;;;;;;;;4994949;28;20177;-48
2023/04/27 08:12:04;;;;;;;7.03;3.08;;;;;;;;;;4995128;28;20189;-48
2023/04/27 08:14:30;;;;;;;5.63;3.05;;;;;;;;;;4995208;28;20200;-48
2023/04/27 08:16:56;;;;;;;8.32;3.20;;;;;;;;;;4994668;28;20216;-49
2023/04/27 08:19:22;;;;;;;6.70;3.45;;;;;;;;;;4995168;28;20446;-48
2023/04/27 08:21:48;;;;;;;6.43;3.10;;;;;;;;;;4994374;28;20185;-48
2023/04/27 08:24:14;;;;;;;5.40;3.10;;;;;;;;;;4995010;28;20212;-48
2023/04/27 08:26:40;;;;;;;9.45;3.67;;;;;;;;;;4994769;28;20200;-48
2023/04/27 08:29:07;;;;;;;8.82;3.40;;;;;;;;;;4994965;28;20220;-48
2023/04/27 08:31:32;;;;;;;5.20;2.80;;;;;;;;;;4994156;28;20181;-48
2023/04/27 08:33:58;;;;;;;6.30;2.88;;;;;;;;;;4993907;28;20251;-48
2023/04/27 08:36:25;;;;;;;5.53;3.10;;;;;;;;;;4994201;28;20189;-49
2023/04/27 08:38:51;;;;;;;6.90;3.08;;;;;;;;;;4991406;28;20185;-48
2023/04/27 08:41:18;;;;;;;4.70;2.70;;;;;;;;;;4988825;28;20563;-48
2023/04/27 08:43:44;;;;;;;6.10;2.80;;;;;;;;;;4994000;28;20229;-48
2023/04/27 08:46:10;;;;;;;5.78;2.80;;;;;;;;;;4995824;28;20209;-49
2023/04/27 08:48:36;;;;;;;5.40;2.72;;;;;;;;;;4993682;28;20640;-48
2023/04/27 08:51:02;;;;;;;6.15;2.50;;;;;;;;;;4994123;28;20181;-48
2023/04/27 08:53:29;;;;;;;6.43;3.15;;;;;;;;;;4991519;28;20238;-48
2023/04/27 08:55:56;;;;;;;4.88;2.80;;;;;;;;;;4993498;28;20193;-48
2023/04/27 08:58:22;;;;;;;7.82;2.78;;;;;;;;;;4992317;28;20189;-49
2023/04/27 09:00:49;;;;;;;5.50;2.80;;;;;;;;;;4994440;28;20181;-48
2023/04/27 09:03:21;;;;;;;5.88;3.00;;;;;;;;;;4991472;28;20615;-48
2023/04/27 09:05:47;;;;;;;4.20;2.40;;;;;;;;;;4993827;28;20173;-49
2023/04/27 09:08:13;;;;;;;6.10;2.65;;;;;;;;;;4993573;28;20182;-48
2023/04/27 09:10:43;;;;;;;4.78;2.47;;;;;;;;;;4993319;28;20187;-48
2023/04/27 09:13:09;;;;;;;5.07;3.03;;;;;;;;;;4994794;28;20182;-49
2023/04/27 09:15:45;;;;;;;6.05;2.80;;;;;;;;;;4991943;28;20181;-48
2023/04/27 09:18:16;;;;;;;5.50;2.30;;;;;;;;;;4995741;28;20172;-48
2023/04/27 09:20:42;;;;;;;3.63;2.13;;;;;;;;;;4997571;28;20186;-48
2023/04/27 09:23:08;;;;;;;6.65;2.95;;;;;;;;;;4996502;28;20181;-48
2023/04/27 09:25:34;;;;;;;5.20;2.53;;;;;;;;;;4998358;28;20538;-48
2023/04/27 09:28:00;;;;;;;4.30;2.67;;;;;;;;;;4995814;28;20264;-48
2023/04/27 09:30:27;;;;;;;4.88;2.58;;;;;;;;;;4992387;28;20458;-48
2023/04/27 09:32:55;;;;;;;5.43;2.80;;;;;;;;;;4992412;28;20195;-48
2023/04/27 09:35:22;;;;;;;4.25;2.38;;;;;;;;;;4996200;28;20312;-48
2023/04/27 09:37:49;;;;;;;5.22;2.45;;;;;;;;;;4996210;28;20193;-48
2023/04/27 09:40:15;;;;;;;4.47;2.38;;;;;;;;;;4995891;28;20193;-48
2023/04/27 09:42:41;;;;;;;3.45;2.20;;;;;;;;;;4996343;28;20220;-48
2023/04/27 09:45:07;;;;;;;3.40;2.15;;;;;;;;;;4995793;28;20201;-48
2023/04/27 09:47:33;;;;;;;3.97;2.28;;;;;;;;;;4996259;28;20181;-48
2023/04/27 09:50:01;;;;;;;3.58;2.10;;;;;;;;;;4996463;28;20189;-49
2023/04/27 09:52:27;;;;;;;4.45;2.28;;;;;;;;;;4996181;28;20228;-49
2023/04/27 09:54:54;;;;;;;4.68;2.63;;;;;;;;;;4997123;28;20501;-48
2023/04/27 09:57:29;;;;;;;5.07;2.30;;;;;;;;;;4997104;28;20228;-49
2023/04/27 10:00:06;;;;;;;4.85;2.13;;;;;;;;;;4997329;28;20610;-48
2023/04/27 10:02:38;;;;;;;2.47;1.95;;;;;;;;;;4993087;28;20263;-48
2023/04/27 10:05:21;;;;;;;5.45;2.05;;;;;;;;;;4997211;28;20239;-48
2023/04/27 10:07:48;;;;;;;3.58;2.20;;;;;;;;;;4996662;28;20169;-48
2023/04/27 10:10:17;;;;;;;2.80;2.17;;;;;;;;;;4996843;28;20546;-48
2023/04/27 10:12:43;;;;;;;5.05;2.38;;;;;;;;;;4997382;28;20177;-48
2023/04/27 10:15:15;;;;;;;2.83;2.05;;;;;;;;;;4996469;28;20272;-49
2023/04/27 10:17:48;;;;;;;4.00;2.08;;;;;;;;;;4996297;28;20217;-49
2023/04/27 10:20:14;;;;;;;4.65;2.70;;;;;;;;;;4996522;28;20185;-48
2023/04/27 10:22:45;;;;;;;3.20;2.28;;;;;;;;;;4995620;28;20509;-48
2023/04/27 10:25:21;;;;;;;4.60;2.33;;;;;;;;;;4996111;28;20531;-48
2023/04/27 10:27:52;;;;;;;3.92;2.22;;;;;;;;;;4995870;28;20223;-48
2023/04/27 10:30:18;;;;;;;5.38;2.08;;;;;;;;;;4996032;28;20272;-49
2023/04/27 10:32:51;;;;;;;4.25;2.28;;;;;;;;;;4995697;28;20264;-48
2023/04/27 10:35:19;;;;;;;3.95;2.15;;;;;;;;;;4995722;28;20200;-48
2023/04/27 10:37:45;;;;;;;3.40;2.00;;;;;;;;;;4995285;28;20648;-48
2023/04/27 10:40:18;;;;;;;3.88;2.10;;;;;;;;;;4995849;28;20463;-48
2023/04/27 10:42:45;;;;;;;3.10;2.08;;;;;;;;;;4995532;28;20193;-48
2023/04/27 10:45:14;;;;;;;3.05;1.80;;;;;;;;;;4994933;28;20276;-48
2023/04/27 10:47:41;;;;;;;4.15;2.10;;;;;;;;;;4995152;28;20181;-48
2023/04/27 10:50:10;;;;;;;3.55;1.92;;;;;;;;;;4996365;28;20508;-48
2023/04/27 10:52:36;;;;;;;5.57;2.03;;;;;;;;;;4995376;28;20577;-48
2023/04/27 10:55:21;;;;;;;3.67;2.10;;;;;;;;;;4995414;28;20736;-48
2023/04/27 10:57:48;;;;;;;4.13;2.10;;;;;;;;;;4990711;28;20463;-48
2023/04/27 11:00:16;;;;;;;7.47;2.97;;;;;;;;;;4978270;28;20181;-48
2023/04/27 11:02:42;;;;;;;13.48;3.92;;;;;;;;;;4995982;28;20228;-49
2023/04/27 11:05:21;;;;;;;5.63;3.05;;;;;;;;;;4994316;28;20221;-48
2023/04/27 11:07:47;;;;;;;5.93;2.90;;;;;;;;;;4993381;28;20260;-48
2023/04/27 11:10:15;;;;;;;7.20;3.15;;;;;;;;;;4995225;28;20184;-48
2023/04/27 11:12:41;;;;;;;6.03;3.08;;;;;;;;;;4995316;28;20184;-48
2023/04/27 11:15:08;;;;;;;6.07;3.45;;;;;;;;;;4994379;28;20659;-48
2023/04/27 11:17:34;;;;;;;6.38;2.85;;;;;;;;;;4995451;28;20177;-48
2023/04/27 11:20:00;;;;;;;5.88;3.20;;;;;;;;;;4994229;28;20189;-48
2023/04/27 11:22:26;;;;;;;4.60;3.03;;;;;;;;;;4995307;28;20684;-48
2023/04/27 11:24:52;;;;;;;4.40;2.95;;;;;;;;;;4994480;28;20193;-48
2023/04/27 11:27:21;;;;;;;5.00;2.92;;;;;;;;;;4977552;28;20300;-49
2023/04/27 11:29:47;;;;;;;8.70;3.28;;;;;;;;;;4995601;28;20200;-48
2023/04/27 11:32:19;;;;;;;7.22;3.38;;;;;;;;;;4994546;28;20189;-48
2023/04/27 11:34:49;;;;;;;10.52;3.20;;;;;;;;;;4994423;28;20197;-48
2023/04/27 11:37:20;;;;;;;8.95;2.95;;;;;;;;;;4994357;28;20204;-48
2023/04/27 11:39:46;;;;;;;5.85;3.17;;;;;;;;;;4993421;28;20284;-48
2023/04/27 11:42:17;;;;;;;8.07;2.88;;;;;;;;;;4995516;28;20264;-48
2023/04/27 11:44:43;;;;;;;10.23;3.05;;;;;;;;;;4993893;28;20209;-48
2023/04/27 11:47:15;;;;;;;5.10;2.65;;;;;;;;;;4994430;28;20231;-48
2023/04/27 11:49:45;;;;;;;5.40;2.80;;;;;;;;;;4995422;28;20170;-48
2023/04/27 11:52:13;;;;;;;6.28;2.58;;;;;;;;;;4994333;28;20572;-48
2023/04/27 11:54:39;;;;;;;6.38;2.90;;;;;;;;;;4995120;28;20213;-48
2023/04/27 11:57:05;;;;;;;6.30;2.70;;;;;;;;;;4994309;28;20184;-48
2023/04/27 11:59:31;;;;;;;3.67;2.20;;;;;;;;;;4995389;28;20187;-48
2023/04/27 12:01:58;;;;;;;5.47;2.22;;;;;;;;;;4993976;28;20264;-48
2023/04/27 12:04:25;;;;;;;5.55;2.67;;;;;;;;;;4995166;28;20220;-48
2023/04/27 12:06:51;;;;;;;5.38;2.53;;;;;;;;;;4994573;28;20181;-48
2023/04/27 12:09:17;;;;;;;6.13;2.47;;;;;;;;;;4994886;28;20236;-48
2023/04/27 12:11:43;;;;;;;5.43;2.75;;;;;;;;;;4994509;28;20182;-48
2023/04/27 12:14:08;;;;;;;6.38;2.20;;;;;;;;;;4994817;28;20189;-48
2023/04/27 12:16:34;;;;;;;5.53;2.50;;;;;;;;;;4994593;28;20177;-48
2023/04/27 12:19:00;;;;;;;3.08;2.20;;;;;;;;;;4993362;28;20457;-48
2023/04/27 12:21:26;;;;;;;4.10;2.15;;;;;;;;;;4996274;28;20196;-48
2023/04/27 12:23:52;;;;;;;4.10;2.70;;;;;;;;;;4993848;28;20275;-48
2023/04/27 12:26:19;;;;;;;5.60;3.00;;;;;;;;;;4995232;28;20678;-48
2023/04/27 12:28:45;;;;;;;21.73;8.55;;;;;;;;;;4994528;28;20231;-48
2023/04/27 12:31:13;;;;;;;49.17;19.17;;;;;;;;;;4991676;28;20181;-48
2023/04/27 12:33:39;;;;;;;81.65;35.67;;;;;;;;;;4988987;28;20170;-48
2023/04/27 12:36:05;;;;;;;103.22;43.28;;;;;;;;;;4994402;28;20232;-48
2023/04/27 12:38:31;;;;;;;99.97;45.88;;;;;;;;;;4993873;28;20188;-48
2023/04/27 12:40:58;;;;;;;106.45;49.72;;;;;;;;;;4993166;28;20209;-48
2023/04/27 12:43:25;;;;;;;122.25;53.40;;;;;;;;;;4991101;28;20284;-48
2023/04/27 12:45:51;;;;;;;118.47;52.08;;;;;;;;;;4995379;28;20169;-48
2023/04/27 12:48:17;;;;;;;108.57;50.03;;;;;;;;;;4997057;28;20189;-48
2023/04/27 12:50:42;;;;;;;113.07;49.45;;;;;;;;;;4997703;28;20185;-48
2023/04/27 12:53:08;;;;;;;110.45;49.67;;;;;;;;;;4998138;28;20189;-48
2023/04/27 12:55:36;;;;;;;105.93;50.92;;;;;;;;;;4997862;28;20204;-48
2023/04/27 12:58:03;;;;;;;107.90;49.88;;;;;;;;;;4995755;28;20204;-48
2023/04/27 13:00:29;;;;;;;109.53;51.08;;;;;;;;;;4996620;28;20514;-48
2023/04/27 13:02:56;;;;;;;102.50;50.78;;;;;;;;;;4997657;28;20181;-48
2023/04/27 13:05:21;;;;;;;110.43;48.45;;;;;;;;;;4997137;28;20216;-48
2023/04/27 13:07:47;;;;;;;111.78;50.75;;;;;;;;;;4996489;28;20177;-48
2023/04/27 13:10:13;;;;;;;109.45;51.58;;;;;;;;;;4996874;28;20565;-48
2023/04/27 13:12:40;;;;;;;99.25;49.20;;;;;;;;;;4997914;28;20177;-48
2023/04/27 13:15:06;;;;;;;104.38;49.17;;;;;;;;;;4998174;28;20188;-48
2023/04/27 13:17:32;;;;;;;88.78;47.53;;;;;;;;;;4996621;28;20228;-48
2023/04/27 13:19:58;;;;;;;98.55;48.55;;;;;;;;;;4997372;28;20193;-48
2023/04/27 13:22:24;;;;;;;95.70;44.47;;;;;;;;;;4997014;28;20440;-48
2023/04/27 13:24:50;;;;;;;78.82;43.13;;;;;;;;;;4998312;28;20213;-48
2023/04/27 13:27:16;;;;;;;90.07;42.95;;;;;;;;;;4996445;28;20265;-48
2023/04/27 13:29:42;;;;;;;84.97;43.90;;;;;;;;;;4997099;28;20192;-48
2023/04/27 13:32:08;;;;;;;87.47;42.60;;;;;;;;;;4996851;28;20232;-48
2023/04/27 13:34:34;;;;;;;85.65;40.85;;;;;;;;;;4997678;28;20220;-49
2023/04/27 13:37:00;;;;;;;75.07;37.65;;;;;;;;;;4996260;28;20188;-48
2023/04/27 13:39:26;;;;;;;69.85;36.58;;;;;;;;;;4996297;28;20192;-49
2023/04/27 13:41:53;;;;;;;72.50;33.42;;;;;;;;;;4996814;28;20189;-48
2023/04/27 13:44:19;;;;;;;60.08;30.02;;;;;;;;;;4997809;28;20576;-48
2023/04/27 13:46:45;;;;;;;56.05;28.30;;;;;;;;;;4995956;28;20177;-49
2023/04/27 13:49:11;;;;;;;51.08;27.40;;;;;;;;;;4996116;28;20223;-49
2023/04/27 13:51:39;;;;;;;52.10;27.52;;;;;;;;;;4997072;28;20183;-48
2023/04/27 13:54:05;;;;;;;46.78;26.13;;;;;;;;;;4996882;28;20216;-48
2023/04/27 13:56:31;;;;;;;49.58;23.67;;;;;;;;;;4996739;28;20209;-48
2023/04/27 13:58:57;;;;;;;38.85;23.27;;;;;;;;;;4996852;28;20212;-48
2023/04/27 14:01:23;;;;;;;40.65;21.90;;;;;;;;;;4995150;28;20193;-48
2023/04/27 14:03:48;;;;;;;42.47;22.98;;;;;;;;;;4997294;28;20660;-48
2023/04/27 14:06:14;;;;;;;40.15;20.63;;;;;;;;;;4997053;28;20199;-48
2023/04/27 14:08:40;;;;;;;39.10;20.17;;;;;;;;;;4996442;28;20456;-48
2023/04/27 14:11:06;;;;;;;32.83;18.83;;;;;;;;;;4996811;28;20565;-48
2023/04/27 14:13:32;;;;;;;33.53;18.40;;;;;;;;;;4996970;28;20572;-49
2023/04/27 14:15:58;;;;;;;32.45;17.35;;;;;;;;;;4996341;28;20177;-48
2023/04/27 14:18:24;;;;;;;32.80;18.10;;;;;;;;;;4994932;28;20188;-48
2023/04/27 14:20:53;;;;;;;30.70;16.38;;;;;;;;;;4997380;28;20678;-48
2023/04/27 14:23:19;;;;;;;31.02;16.17;;;;;;;;;;4997055;28;20480;-48
2023/04/27 14:25:45;;;;;;;30.83;15.48;;;;;;;;;;4997245;28;20963;-48
2023/04/27 14:28:13;;;;;;;28.80;15.48;;;;;;;;;;4995668;28;20191;-48
2023/04/27 14:30:39;;;;;;;30.02;14.30;;;;;;;;;;4993837;28;20188;-48